sensor_id;sensor_type;location;lat;lon;timestamp;temperature;humidity
21090;DHT22;10703;51.020;6.128;2022-09-09T00:04:38;14.30;99.90
21090;DHT22;10703;51.020;6.128;2022-09-09T00:10:09;14.40;99.90
21090;DHT22;10703;51.020;6.128;2022-09-09T00:18:41;14.50;99.90
21090;DHT22;10703;51.020;6.128;2022-09-09T00:21:14;14.40;99.90
21090;DHT22;10703;51.020;6.128;2022-09-09T00:23:54;14.50;99.90
21090;DHT22;10703;51.020;6.128;2022-09-09T00:26:43;14.50;99.90
21090;DHT22;10703;51.020;6.128;2022-09-09T00:29:28;14.40;99.90
21090;DHT22;10703;51.020;6.128;2022-09-09T00:32:09;14.40;99.90
21090;DHT22;10703;51.020;6.128;2022-09-09T00:34:44;14.40;99.90
21090;DHT22;10703;51.020;6.128;2022-09-09T00:37:11;14.50;99.90
21090;DHT22;10703;51.020;6.128;2022-09-09T00:39:42;14.60;99.90
21090;DHT22;10703;51.020;6.128;2022-09-09T00:42:31;14.70;99.90
21090;DHT22;10703;51.020;6.128;2022-09-09T00:45:32;14.70;99.90
21090;DHT22;10703;51.020;6.128;2022-09-09T00:48:12;14.70;99.90
21090;DHT22;10703;51.020;6.128;2022-09-09T00:50:55;14.60;99.90
21090;DHT22;10703;51.020;6.128;2022-09-09T00:53:26;14.40;99.90
21090;DHT22;10703;51.020;6.128;2022-09-09T00:56:09;14.30;99.90
21090;DHT22;10703;51.020;6.128;2022-09-09T00:58:37;14.30;99.90
21090;DHT22;10703;51.020;6.128;2022-09-09T01:01:09;14.30;99.90
21090;DHT22;10703;51.020;6.128;2022-09-09T01:03:54;14.40;99.90
21090;DHT22;10703;51.020;6.128;2022-09-09T01:06:31;14.40;99.90
21090;DHT22;10703;51.020;6.128;2022-09-09T01:12:09;14.50;99.90
21090;DHT22;10703;51.020;6.128;2022-09-09T01:14:42;14.50;99.90
21090;DHT22;10703;51.020;6.128;2022-09-09T01:17:26;14.60;99.90
21090;DHT22;10703;51.020;6.128;2022-09-09T01:28:37;14.70;99.90
21090;DHT22;10703;51.020;6.128;2022-09-09T01:31:06;14.80;99.90
21090;DHT22;10703;51.020;6.128;2022-09-09T01:33:35;14.80;99.90
21090;DHT22;10703;51.020;6.128;2022-09-09T01:36:17;14.70;99.90
21090;DHT22;10703;51.020;6.128;2022-09-09T01:38:47;14.80;99.90
21090;DHT22;10703;51.020;6.128;2022-09-09T01:41:13;14.80;99.90
21090;DHT22;10703;51.020;6.128;2022-09-09T01:43:40;14.80;99.90
21090;DHT22;10703;51.020;6.128;2022-09-09T01:46:07;14.70;99.90
21090;DHT22;10703;51.020;6.128;2022-09-09T01:48:34;14.80;99.90
21090;DHT22;10703;51.020;6.128;2022-09-09T01:51:01;14.80;99.90
21090;DHT22;10703;51.020;6.128;2022-09-09T01:53:28;14.80;99.90
21090;DHT22;10703;51.020;6.128;2022-09-09T01:56:07;14.80;99.90
21090;DHT22;10703;51.020;6.128;2022-09-09T02:04:43;14.80;99.90
21090;DHT22;10703;51.020;6.128;2022-09-09T02:10:32;14.90;99.90
21090;DHT22;10703;51.020;6.128;2022-09-09T02:13:12;15.00;99.90
21090;DHT22;10703;51.020;6.128;2022-09-09T02:18:25;15.10;99.90
21090;DHT22;10703;51.020;6.128;2022-09-09T02:20:53;15.20;99.90
21090;DHT22;10703;51.020;6.128;2022-09-09T02:23:20;15.20;99.90
21090;DHT22;10703;51.020;6.128;2022-09-09T02:25:48;15.10;99.90
21090;DHT22;10703;51.020;6.128;2022-09-09T02:28:19;15.20;99.90
21090;DHT22;10703;51.020;6.128;2022-09-09T02:30:50;15.20;99.90
21090;DHT22;10703;51.020;6.128;2022-09-09T02:33:42;15.20;99.90
21090;DHT22;10703;51.020;6.128;2022-09-09T02:36:11;15.20;99.90
21090;DHT22;10703;51.020;6.128;2022-09-09T02:38:45;15.20;99.90
21090;DHT22;10703;51.020;6.128;2022-09-09T02:41:12;15.20;99.90
21090;DHT22;10703;51.020;6.128;2022-09-09T02:43:38;15.20;99.90
21090;DHT22;10703;51.020;6.128;2022-09-09T02:46:23;15.20;99.90
21090;DHT22;10703;51.020;6.128;2022-09-09T02:48:59;15.20;99.90
21090;DHT22;10703;51.020;6.128;2022-09-09T02:51:35;15.20;99.90
21090;DHT22;10703;51.020;6.128;2022-09-09T02:54:20;15.20;99.90
21090;DHT22;10703;51.020;6.128;2022-09-09T02:56:54;15.20;99.90
21090;DHT22;10703;51.020;6.128;2022-09-09T02:59:22;15.40;99.90
21090;DHT22;10703;51.020;6.128;2022-09-09T03:01:51;15.50;99.90
21090;DHT22;10703;51.020;6.128;2022-09-09T03:04:17;15.50;99.90
21090;DHT22;10703;51.020;6.128;2022-09-09T03:06:44;15.60;99.90
21090;DHT22;10703;51.020;6.128;2022-09-09T03:09:11;15.70;99.90
21090;DHT22;10703;51.020;6.128;2022-09-09T03:11:37;15.80;99.90
21090;DHT22;10703;51.020;6.128;2022-09-09T03:14:04;15.80;99.90
21090;DHT22;10703;51.020;6.128;2022-09-09T03:16:31;15.70;99.90
21090;DHT22;10703;51.020;6.128;2022-09-09T03:19:00;15.70;99.90
21090;DHT22;10703;51.020;6.128;2022-09-09T03:21:27;15.70;99.90
21090;DHT22;10703;51.020;6.128;2022-09-09T03:23:53;15.70;99.90
21090;DHT22;10703;51.020;6.128;2022-09-09T03:26:20;15.70;99.90
21090;DHT22;10703;51.020;6.128;2022-09-09T03:28:47;15.70;99.90
21090;DHT22;10703;51.020;6.128;2022-09-09T03:31:13;15.70;99.90
21090;DHT22;10703;51.020;6.128;2022-09-09T03:33:40;15.70;99.90
21090;DHT22;10703;51.020;6.128;2022-09-09T03:36:07;15.70;99.90
21090;DHT22;10703;51.020;6.128;2022-09-09T03:38:37;15.80;99.90
21090;DHT22;10703;51.020;6.128;2022-09-09T03:41:03;15.80;99.90
21090;DHT22;10703;51.020;6.128;2022-09-09T03:43:32;15.80;99.90
21090;DHT22;10703;51.020;6.128;2022-09-09T03:45:59;15.70;99.90
21090;DHT22;10703;51.020;6.128;2022-09-09T03:48:26;15.80;99.90
21090;DHT22;10703;51.020;6.128;2022-09-09T03:50:55;15.70;99.90
21090;DHT22;10703;51.020;6.128;2022-09-09T03:53:24;15.70;99.90
21090;DHT22;10703;51.020;6.128;2022-09-09T03:55:53;15.70;99.90
21090;DHT22;10703;51.020;6.128;2022-09-09T03:58:22;15.80;99.90
21090;DHT22;10703;51.020;6.128;2022-09-09T04:00:58;15.90;99.90
21090;DHT22;10703;51.020;6.128;2022-09-09T04:03:25;15.80;99.90
21090;DHT22;10703;51.020;6.128;2022-09-09T04:05:55;15.80;99.90
21090;DHT22;10703;51.020;6.128;2022-09-09T04:08:23;15.80;99.90
21090;DHT22;10703;51.020;6.128;2022-09-09T04:10:52;15.90;99.90
21090;DHT22;10703;51.020;6.128;2022-09-09T04:13:19;15.90;99.90
21090;DHT22;10703;51.020;6.128;2022-09-09T04:15:54;15.80;99.90
21090;DHT22;10703;51.020;6.128;2022-09-09T04:18:22;15.90;99.90
21090;DHT22;10703;51.020;6.128;2022-09-09T04:20:50;15.90;99.90
21090;DHT22;10703;51.020;6.128;2022-09-09T04:23:17;16.00;99.90
21090;DHT22;10703;51.020;6.128;2022-09-09T04:25:49;16.00;99.90
21090;DHT22;10703;51.020;6.128;2022-09-09T04:28:17;16.00;99.90
21090;DHT22;10703;51.020;6.128;2022-09-09T04:30:44;16.10;99.90
21090;DHT22;10703;51.020;6.128;2022-09-09T04:33:12;16.10;99.90
21090;DHT22;10703;51.020;6.128;2022-09-09T04:35:39;16.00;99.90
21090;DHT22;10703;51.020;6.128;2022-09-09T04:38:09;16.00;99.90
21090;DHT22;10703;51.020;6.128;2022-09-09T04:40:36;16.00;99.90
21090;DHT22;10703;51.020;6.128;2022-09-09T04:43:03;16.00;99.90
21090;DHT22;10703;51.020;6.128;2022-09-09T04:45:36;16.10;99.90
21090;DHT22;10703;51.020;6.128;2022-09-09T04:48:03;16.10;99.90
21090;DHT22;10703;51.020;6.128;2022-09-09T04:50:30;16.10;99.90
21090;DHT22;10703;51.020;6.128;2022-09-09T04:53:00;16.10;99.90
21090;DHT22;10703;51.020;6.128;2022-09-09T04:55:27;16.00;99.90
21090;DHT22;10703;51.020;6.128;2022-09-09T04:57:53;15.90;99.90
21090;DHT22;10703;51.020;6.128;2022-09-09T05:00:20;16.00;99.90
21090;DHT22;10703;51.020;6.128;2022-09-09T05:02:47;16.00;99.90
21090;DHT22;10703;51.020;6.128;2022-09-09T05:05:14;16.00;99.90
21090;DHT22;10703;51.020;6.128;2022-09-09T05:07:40;16.10;99.90
21090;DHT22;10703;51.020;6.128;2022-09-09T05:10:08;16.10;99.90
21090;DHT22;10703;51.020;6.128;2022-09-09T05:12:34;16.10;99.90
21090;DHT22;10703;51.020;6.128;2022-09-09T05:15:01;16.00;99.90
21090;DHT22;10703;51.020;6.128;2022-09-09T05:17:28;16.00;99.90
21090;DHT22;10703;51.020;6.128;2022-09-09T05:19:55;16.10;99.90
21090;DHT22;10703;51.020;6.128;2022-09-09T05:22:21;16.20;99.90
21090;DHT22;10703;51.020;6.128;2022-09-09T05:24:50;16.10;99.90
21090;DHT22;10703;51.020;6.128;2022-09-09T05:27:19;16.10;99.90
21090;DHT22;10703;51.020;6.128;2022-09-09T05:29:46;16.20;99.90
21090;DHT22;10703;51.020;6.128;2022-09-09T05:32:12;16.20;99.90
21090;DHT22;10703;51.020;6.128;2022-09-09T05:34:41;16.20;99.90
21090;DHT22;10703;51.020;6.128;2022-09-09T05:37:07;16.20;99.90
21090;DHT22;10703;51.020;6.128;2022-09-09T05:39:34;16.20;99.90
21090;DHT22;10703;51.020;6.128;2022-09-09T05:42:03;16.20;99.90
21090;DHT22;10703;51.020;6.128;2022-09-09T05:44:31;16.10;99.90
21090;DHT22;10703;51.020;6.128;2022-09-09T05:46:58;16.20;99.90
21090;DHT22;10703;51.020;6.128;2022-09-09T05:49:25;16.30;99.90
21090;DHT22;10703;51.020;6.128;2022-09-09T05:51:51;16.10;99.90
21090;DHT22;10703;51.020;6.128;2022-09-09T05:54:19;16.20;99.90
21090;DHT22;10703;51.020;6.128;2022-09-09T05:56:45;16.20;99.90
21090;DHT22;10703;51.020;6.128;2022-09-09T05:59:17;16.20;99.90
21090;DHT22;10703;51.020;6.128;2022-09-09T06:01:44;16.30;99.90
21090;DHT22;10703;51.020;6.128;2022-09-09T06:04:11;16.20;99.90
21090;DHT22;10703;51.020;6.128;2022-09-09T06:06:39;16.30;99.90
21090;DHT22;10703;51.020;6.128;2022-09-09T06:09:07;16.40;99.90
21090;DHT22;10703;51.020;6.128;2022-09-09T06:11:38;16.40;99.90
21090;DHT22;10703;51.020;6.128;2022-09-09T06:14:06;16.50;99.90
21090;DHT22;10703;51.020;6.128;2022-09-09T06:16:33;16.50;99.90
21090;DHT22;10703;51.020;6.128;2022-09-09T06:19:01;16.60;99.90
21090;DHT22;10703;51.020;6.128;2022-09-09T06:21:31;16.50;99.90
21090;DHT22;10703;51.020;6.128;2022-09-09T06:23:59;16.40;99.90
21090;DHT22;10703;51.020;6.128;2022-09-09T06:26:34;16.50;99.90
21090;DHT22;10703;51.020;6.128;2022-09-09T06:29:03;16.40;99.90
21090;DHT22;10703;51.020;6.128;2022-09-09T06:31:32;16.30;99.90
21090;DHT22;10703;51.020;6.128;2022-09-09T06:34:01;16.20;99.90
21090;DHT22;10703;51.020;6.128;2022-09-09T06:36:32;16.20;99.90
21090;DHT22;10703;51.020;6.128;2022-09-09T06:39:00;16.20;99.90
21090;DHT22;10703;51.020;6.128;2022-09-09T06:41:28;16.30;99.90
21090;DHT22;10703;51.020;6.128;2022-09-09T06:43:56;16.50;99.90
21090;DHT22;10703;51.020;6.128;2022-09-09T06:46:24;16.70;99.90
21090;DHT22;10703;51.020;6.128;2022-09-09T06:48:55;16.90;99.90
21090;DHT22;10703;51.020;6.128;2022-09-09T06:51:23;17.00;99.90
21090;DHT22;10703;51.020;6.128;2022-09-09T06:53:52;17.00;99.90
21090;DHT22;10703;51.020;6.128;2022-09-09T06:56:31;17.00;99.90
21090;DHT22;10703;51.020;6.128;2022-09-09T06:59:00;17.00;99.90
21090;DHT22;10703;51.020;6.128;2022-09-09T07:01:32;17.20;99.90
21090;DHT22;10703;51.020;6.128;2022-09-09T07:04:00;17.50;99.90
21090;DHT22;10703;51.020;6.128;2022-09-09T07:06:31;17.70;99.90
21090;DHT22;10703;51.020;6.128;2022-09-09T07:09:00;17.70;99.90
21090;DHT22;10703;51.020;6.128;2022-09-09T07:11:29;17.70;99.90
21090;DHT22;10703;51.020;6.128;2022-09-09T07:13:59;17.70;99.90
21090;DHT22;10703;51.020;6.128;2022-09-09T07:16:26;17.90;99.90
21090;DHT22;10703;51.020;6.128;2022-09-09T07:18:54;17.90;99.90
21090;DHT22;10703;51.020;6.128;2022-09-09T07:21:29;17.90;99.90
21090;DHT22;10703;51.020;6.128;2022-09-09T07:23:56;18.20;99.90
21090;DHT22;10703;51.020;6.128;2022-09-09T07:26:25;18.40;99.90
21090;DHT22;10703;51.020;6.128;2022-09-09T07:28:52;18.30;99.90
21090;DHT22;10703;51.020;6.128;2022-09-09T07:31:22;18.20;99.90
21090;DHT22;10703;51.020;6.128;2022-09-09T07:33:50;18.20;99.90
21090;DHT22;10703;51.020;6.128;2022-09-09T07:38:53;19.20;99.90
21090;DHT22;10703;51.020;6.128;2022-09-09T07:41:41;19.50;99.90
21090;DHT22;10703;51.020;6.128;2022-09-09T07:44:13;20.00;99.90
21090;DHT22;10703;51.020;6.128;2022-09-09T07:46:40;20.10;99.90
21090;DHT22;10703;51.020;6.128;2022-09-09T07:49:08;20.30;99.90
21090;DHT22;10703;51.020;6.128;2022-09-09T07:51:37;20.30;99.90
21090;DHT22;10703;51.020;6.128;2022-09-09T07:54:08;20.50;99.90
21090;DHT22;10703;51.020;6.128;2022-09-09T07:56:36;20.70;99.90
21090;DHT22;10703;51.020;6.128;2022-09-09T07:59:03;20.30;99.90
21090;DHT22;10703;51.020;6.128;2022-09-09T08:01:38;20.40;99.90
21090;DHT22;10703;51.020;6.128;2022-09-09T08:04:08;20.00;99.90
21090;DHT22;10703;51.020;6.128;2022-09-09T08:06:41;20.00;99.90
21090;DHT22;10703;51.020;6.128;2022-09-09T08:09:09;20.40;99.90
21090;DHT22;10703;51.020;6.128;2022-09-09T08:11:36;19.90;99.90
21090;DHT22;10703;51.020;6.128;2022-09-09T08:14:08;19.80;99.90
21090;DHT22;10703;51.020;6.128;2022-09-09T08:16:39;20.10;99.90
21090;DHT22;10703;51.020;6.128;2022-09-09T08:19:07;19.80;99.90
21090;DHT22;10703;51.020;6.128;2022-09-09T08:21:36;19.50;99.90
21090;DHT22;10703;51.020;6.128;2022-09-09T08:24:04;19.60;99.90
21090;DHT22;10703;51.020;6.128;2022-09-09T08:26:37;19.80;99.90
21090;DHT22;10703;51.020;6.128;2022-09-09T08:29:05;19.80;99.90
21090;DHT22;10703;51.020;6.128;2022-09-09T08:31:38;20.00;99.90
21090;DHT22;10703;51.020;6.128;2022-09-09T08:34:06;19.90;99.90
21090;DHT22;10703;51.020;6.128;2022-09-09T08:36:36;19.60;99.90
21090;DHT22;10703;51.020;6.128;2022-09-09T08:39:04;19.10;99.90
21090;DHT22;10703;51.020;6.128;2022-09-09T08:49:59;18.70;99.90
21090;DHT22;10703;51.020;6.128;2022-09-09T08:52:36;19.40;99.90
21090;DHT22;10703;51.020;6.128;2022-09-09T08:58:08;19.80;99.90
21090;DHT22;10703;51.020;6.128;2022-09-09T09:12:13;20.30;99.90
21090;DHT22;10703;51.020;6.128;2022-09-09T09:14:33;20.60;99.90
21090;DHT22;10703;51.020;6.128;2022-09-09T09:17:11;20.10;99.90
21090;DHT22;10703;51.020;6.128;2022-09-09T09:19:40;20.20;99.90
21090;DHT22;10703;51.020;6.128;2022-09-09T09:25:18;19.90;99.90
21090;DHT22;10703;51.020;6.128;2022-09-09T09:30:31;19.80;99.90
21090;DHT22;10703;51.020;6.128;2022-09-09T09:35:59;19.70;99.90
21090;DHT22;10703;51.020;6.128;2022-09-09T09:38:27;19.80;99.90
21090;DHT22;10703;51.020;6.128;2022-09-09T09:41:14;19.80;99.90
21090;DHT22;10703;51.020;6.128;2022-09-09T09:43:41;20.00;99.90
21090;DHT22;10703;51.020;6.128;2022-09-09T09:46:22;20.20;99.90
21090;DHT22;10703;51.020;6.128;2022-09-09T09:49:05;20.20;99.90
21090;DHT22;10703;51.020;6.128;2022-09-09T09:51:33;20.10;99.90
21090;DHT22;10703;51.020;6.128;2022-09-09T09:54:22;20.00;99.90
21090;DHT22;10703;51.020;6.128;2022-09-09T09:56:51;19.90;99.90
21090;DHT22;10703;51.020;6.128;2022-09-09T09:59:59;19.80;99.90
21090;DHT22;10703;51.020;6.128;2022-09-09T10:02:25;19.40;99.90
21090;DHT22;10703;51.020;6.128;2022-09-09T10:05:19;19.30;99.90
21090;DHT22;10703;51.020;6.128;2022-09-09T10:08:05;19.50;99.90
21090;DHT22;10703;51.020;6.128;2022-09-09T10:13:42;19.70;99.90
21090;DHT22;10703;51.020;6.128;2022-09-09T10:19:04;19.70;99.90
21090;DHT22;10703;51.020;6.128;2022-09-09T10:21:48;19.70;99.90
21090;DHT22;10703;51.020;6.128;2022-09-09T10:27:05;19.70;99.90
21090;DHT22;10703;51.020;6.128;2022-09-09T10:30:00;19.70;99.90
21090;DHT22;10703;51.020;6.128;2022-09-09T10:32:54;19.50;99.90
21090;DHT22;10703;51.020;6.128;2022-09-09T10:35:41;19.70;99.90
21090;DHT22;10703;51.020;6.128;2022-09-09T10:38:11;20.00;99.90
21090;DHT22;10703;51.020;6.128;2022-09-09T10:54:22;21.00;99.90
21090;DHT22;10703;51.020;6.128;2022-09-09T10:56:55;20.70;99.90
21090;DHT22;10703;51.020;6.128;2022-09-09T10:59:31;20.50;99.90
21090;DHT22;10703;51.020;6.128;2022-09-09T11:04:48;21.40;99.90
21090;DHT22;10703;51.020;6.128;2022-09-09T11:07:26;21.80;99.90
21090;DHT22;10703;51.020;6.128;2022-09-09T11:09:58;22.00;99.90
21090;DHT22;10703;51.020;6.128;2022-09-09T11:12:27;21.50;99.90
21090;DHT22;10703;51.020;6.128;2022-09-09T11:15:01;21.30;99.90
21090;DHT22;10703;51.020;6.128;2022-09-09T11:20:32;21.00;99.90
21090;DHT22;10703;51.020;6.128;2022-09-09T11:23:10;20.50;99.90
21090;DHT22;10703;51.020;6.128;2022-09-09T11:25:43;20.30;99.90
21090;DHT22;10703;51.020;6.128;2022-09-09T11:34:49;19.50;99.90
21090;DHT22;10703;51.020;6.128;2022-09-09T11:40:24;18.30;99.90
21090;DHT22;10703;51.020;6.128;2022-09-09T11:43:08;18.10;99.90
21090;DHT22;10703;51.020;6.128;2022-09-09T11:45:36;17.90;99.90
21090;DHT22;10703;51.020;6.128;2022-09-09T11:48:04;17.70;99.90
21090;DHT22;10703;51.020;6.128;2022-09-09T11:50:36;17.60;99.90
21090;DHT22;10703;51.020;6.128;2022-09-09T11:55:40;17.60;99.90
21090;DHT22;10703;51.020;6.128;2022-09-09T12:00:45;17.70;99.90
21090;DHT22;10703;51.020;6.128;2022-09-09T12:03:36;17.80;99.90
21090;DHT22;10703;51.020;6.128;2022-09-09T12:06:19;17.50;99.90
21090;DHT22;10703;51.020;6.128;2022-09-09T12:08:50;17.20;99.90
21090;DHT22;10703;51.020;6.128;2022-09-09T12:11:29;16.90;99.90
21090;DHT22;10703;51.020;6.128;2022-09-09T12:13:58;16.80;99.90
21090;DHT22;10703;51.020;6.128;2022-09-09T12:16:29;16.90;99.90
21090;DHT22;10703;51.020;6.128;2022-09-09T12:19:19;16.90;99.90
21090;DHT22;10703;51.020;6.128;2022-09-09T12:22:06;16.90;99.90
21090;DHT22;10703;51.020;6.128;2022-09-09T12:27:46;17.10;99.90
21090;DHT22;10703;51.020;6.128;2022-09-09T12:30:15;17.80;99.90
21090;DHT22;10703;51.020;6.128;2022-09-09T12:32:42;18.20;99.90
21090;DHT22;10703;51.020;6.128;2022-09-09T12:35:25;18.60;99.90
21090;DHT22;10703;51.020;6.128;2022-09-09T12:37:57;19.80;99.90
21090;DHT22;10703;51.020;6.128;2022-09-09T12:40:30;19.50;99.90
21090;DHT22;10703;51.020;6.128;2022-09-09T12:42:59;19.30;99.90
21090;DHT22;10703;51.020;6.128;2022-09-09T12:45:32;19.40;99.90
21090;DHT22;10703;51.020;6.128;2022-09-09T12:48:00;19.20;99.90
21090;DHT22;10703;51.020;6.128;2022-09-09T12:50:30;19.40;99.90
21090;DHT22;10703;51.020;6.128;2022-09-09T12:53:08;19.60;99.90
21090;DHT22;10703;51.020;6.128;2022-09-09T12:55:38;20.00;99.90
21090;DHT22;10703;51.020;6.128;2022-09-09T12:58:06;19.80;99.90
21090;DHT22;10703;51.020;6.128;2022-09-09T13:00:34;19.50;99.90
21090;DHT22;10703;51.020;6.128;2022-09-09T13:03:13;19.30;99.90
21090;DHT22;10703;51.020;6.128;2022-09-09T13:05:42;19.40;99.90
21090;DHT22;10703;51.020;6.128;2022-09-09T13:08:11;20.00;99.90
21090;DHT22;10703;51.020;6.128;2022-09-09T13:11:00;21.30;99.90
21090;DHT22;10703;51.020;6.128;2022-09-09T13:13:37;22.20;99.90
21090;DHT22;10703;51.020;6.128;2022-09-09T13:16:06;21.90;99.90
21090;DHT22;10703;51.020;6.128;2022-09-09T13:18:44;22.30;99.90
21090;DHT22;10703;51.020;6.128;2022-09-09T13:21:11;22.90;99.90
21090;DHT22;10703;51.020;6.128;2022-09-09T13:23:38;23.30;99.90
21090;DHT22;10703;51.020;6.128;2022-09-09T13:26:21;23.20;99.90
21090;DHT22;10703;51.020;6.128;2022-09-09T13:28:48;22.40;99.90
21090;DHT22;10703;51.020;6.128;2022-09-09T13:31:27;22.10;99.90
21090;DHT22;10703;51.020;6.128;2022-09-09T13:33:54;21.10;99.90
21090;DHT22;10703;51.020;6.128;2022-09-09T13:36:31;20.20;99.90
21090;DHT22;10703;51.020;6.128;2022-09-09T13:39:01;19.60;99.90
21090;DHT22;10703;51.020;6.128;2022-09-09T13:41:42;18.80;99.90
21090;DHT22;10703;51.020;6.128;2022-09-09T13:44:23;18.10;99.90
21090;DHT22;10703;51.020;6.128;2022-09-09T13:47:15;17.80;99.90
21090;DHT22;10703;51.020;6.128;2022-09-09T13:49:43;17.60;99.90
21090;DHT22;10703;51.020;6.128;2022-09-09T13:52:12;17.20;99.90
21090;DHT22;10703;51.020;6.128;2022-09-09T13:54:40;16.50;99.90
21090;DHT22;10703;51.020;6.128;2022-09-09T13:57:19;15.50;99.90
21090;DHT22;10703;51.020;6.128;2022-09-09T13:59:47;15.10;99.90
21090;DHT22;10703;51.020;6.128;2022-09-09T14:02:30;15.00;99.90
21090;DHT22;10703;51.020;6.128;2022-09-09T14:04:57;15.00;99.90
21090;DHT22;10703;51.020;6.128;2022-09-09T14:07:24;15.10;99.90
21090;DHT22;10703;51.020;6.128;2022-09-09T14:09:51;15.40;99.90
21090;DHT22;10703;51.020;6.128;2022-09-09T14:12:18;15.70;99.90
21090;DHT22;10703;51.020;6.128;2022-09-09T14:14:46;16.10;99.90
21090;DHT22;10703;51.020;6.128;2022-09-09T14:17:12;16.40;99.90
21090;DHT22;10703;51.020;6.128;2022-09-09T14:19:40;16.80;99.90
21090;DHT22;10703;51.020;6.128;2022-09-09T14:22:07;17.20;99.90
21090;DHT22;10703;51.020;6.128;2022-09-09T14:24:34;17.70;99.90
21090;DHT22;10703;51.020;6.128;2022-09-09T14:27:00;18.30;99.90
21090;DHT22;10703;51.020;6.128;2022-09-09T14:29:27;18.80;99.90
21090;DHT22;10703;51.020;6.128;2022-09-09T14:31:54;19.70;99.90
21090;DHT22;10703;51.020;6.128;2022-09-09T14:34:20;21.10;99.90
21090;DHT22;10703;51.020;6.128;2022-09-09T14:36:47;21.80;99.90
21090;DHT22;10703;51.020;6.128;2022-09-09T14:39:13;21.70;99.90
21090;DHT22;10703;51.020;6.128;2022-09-09T14:41:40;21.20;99.90
21090;DHT22;10703;51.020;6.128;2022-09-09T14:44:06;21.00;99.90
21090;DHT22;10703;51.020;6.128;2022-09-09T14:46:34;21.10;99.90
21090;DHT22;10703;51.020;6.128;2022-09-09T14:49:01;20.70;99.90
21090;DHT22;10703;51.020;6.128;2022-09-09T14:51:27;20.50;99.90
21090;DHT22;10703;51.020;6.128;2022-09-09T14:53:56;20.10;99.90
21090;DHT22;10703;51.020;6.128;2022-09-09T14:56:26;20.00;99.90
21090;DHT22;10703;51.020;6.128;2022-09-09T14:58:54;19.80;99.90
21090;DHT22;10703;51.020;6.128;2022-09-09T15:01:22;19.60;99.90
21090;DHT22;10703;51.020;6.128;2022-09-09T15:03:54;19.50;99.90
21090;DHT22;10703;51.020;6.128;2022-09-09T15:06:22;19.40;99.90
21090;DHT22;10703;51.020;6.128;2022-09-09T15:08:51;19.40;99.90
21090;DHT22;10703;51.020;6.128;2022-09-09T15:11:19;19.50;99.90
21090;DHT22;10703;51.020;6.128;2022-09-09T15:13:46;19.40;99.90
21090;DHT22;10703;51.020;6.128;2022-09-09T15:16:18;19.40;99.90
21090;DHT22;10703;51.020;6.128;2022-09-09T15:18:49;20.30;99.90
21090;DHT22;10703;51.020;6.128;2022-09-09T15:21:18;20.80;99.90
21090;DHT22;10703;51.020;6.128;2022-09-09T15:23:46;20.60;99.90
21090;DHT22;10703;51.020;6.128;2022-09-09T15:26:14;20.40;99.90
21090;DHT22;10703;51.020;6.128;2022-09-09T15:28:42;20.40;99.90
21090;DHT22;10703;51.020;6.128;2022-09-09T15:33:37;20.20;99.90
21090;DHT22;10703;51.020;6.128;2022-09-09T15:36:21;19.90;99.90
21090;DHT22;10703;51.020;6.128;2022-09-09T15:38:48;19.50;99.90
21090;DHT22;10703;51.020;6.128;2022-09-09T15:41:17;19.40;99.90
21090;DHT22;10703;51.020;6.128;2022-09-09T15:43:45;18.80;99.90
21090;DHT22;10703;51.020;6.128;2022-09-09T15:46:37;17.80;99.90
21090;DHT22;10703;51.020;6.128;2022-09-09T15:49:08;17.10;99.90
21090;DHT22;10703;51.020;6.128;2022-09-09T15:51:39;16.60;99.90
21090;DHT22;10703;51.020;6.128;2022-09-09T15:54:12;16.80;99.90
21090;DHT22;10703;51.020;6.128;2022-09-09T15:56:39;16.80;99.90
21090;DHT22;10703;51.020;6.128;2022-09-09T15:59:06;17.40;99.90
21090;DHT22;10703;51.020;6.128;2022-09-09T16:01:34;18.30;99.90
21090;DHT22;10703;51.020;6.128;2022-09-09T16:04:02;18.80;99.90
21090;DHT22;10703;51.020;6.128;2022-09-09T16:06:29;19.80;99.90
21090;DHT22;10703;51.020;6.128;2022-09-09T16:08:58;20.00;99.90
21090;DHT22;10703;51.020;6.128;2022-09-09T16:11:28;20.40;99.90
21090;DHT22;10703;51.020;6.128;2022-09-09T16:13:55;21.10;99.90
21090;DHT22;10703;51.020;6.128;2022-09-09T16:16:24;20.90;99.90
21090;DHT22;10703;51.020;6.128;2022-09-09T16:18:57;20.80;99.90
21090;DHT22;10703;51.020;6.128;2022-09-09T16:21:28;20.50;99.90
21090;DHT22;10703;51.020;6.128;2022-09-09T16:23:57;20.20;99.90
21090;DHT22;10703;51.020;6.128;2022-09-09T16:26:26;19.80;99.90
21090;DHT22;10703;51.020;6.128;2022-09-09T16:28:53;19.30;99.90
21090;DHT22;10703;51.020;6.128;2022-09-09T16:31:26;19.10;99.90
21090;DHT22;10703;51.020;6.128;2022-09-09T16:33:53;18.70;99.90
21090;DHT22;10703;51.020;6.128;2022-09-09T16:36:25;18.80;99.90
21090;DHT22;10703;51.020;6.128;2022-09-09T16:38:54;18.70;99.90
21090;DHT22;10703;51.020;6.128;2022-09-09T16:41:25;18.50;99.90
21090;DHT22;10703;51.020;6.128;2022-09-09T16:43:53;18.60;99.90
21090;DHT22;10703;51.020;6.128;2022-09-09T16:46:21;18.70;99.90
21090;DHT22;10703;51.020;6.128;2022-09-09T16:48:49;19.20;99.90
21090;DHT22;10703;51.020;6.128;2022-09-09T16:51:21;19.50;99.90
21090;DHT22;10703;51.020;6.128;2022-09-09T16:53:50;19.40;99.90
21090;DHT22;10703;51.020;6.128;2022-09-09T16:56:22;19.20;99.90
21090;DHT22;10703;51.020;6.128;2022-09-09T16:58:55;19.10;99.90
21090;DHT22;10703;51.020;6.128;2022-09-09T17:01:23;18.90;99.90
21090;DHT22;10703;51.020;6.128;2022-09-09T17:03:57;18.70;99.90
21090;DHT22;10703;51.020;6.128;2022-09-09T17:06:28;18.60;99.90
21090;DHT22;10703;51.020;6.128;2022-09-09T17:09:00;18.40;99.90
21090;DHT22;10703;51.020;6.128;2022-09-09T17:11:28;18.20;99.90
21090;DHT22;10703;51.020;6.128;2022-09-09T17:13:57;18.30;99.90
21090;DHT22;10703;51.020;6.128;2022-09-09T17:16:29;18.00;99.90
21090;DHT22;10703;51.020;6.128;2022-09-09T17:18:57;18.00;99.90
21090;DHT22;10703;51.020;6.128;2022-09-09T17:21:26;18.00;99.90
21090;DHT22;10703;51.020;6.128;2022-09-09T17:23:54;18.00;99.90
21090;DHT22;10703;51.020;6.128;2022-09-09T17:26:23;17.80;99.90
21090;DHT22;10703;51.020;6.128;2022-09-09T17:28:50;17.90;99.90
21090;DHT22;10703;51.020;6.128;2022-09-09T17:31:25;17.80;99.90
21090;DHT22;10703;51.020;6.128;2022-09-09T17:33:52;17.80;99.90
21090;DHT22;10703;51.020;6.128;2022-09-09T17:38:52;17.70;99.90
21090;DHT22;10703;51.020;6.128;2022-09-09T17:41:21;17.60;99.90
21090;DHT22;10703;51.020;6.128;2022-09-09T17:43:48;17.60;99.90
21090;DHT22;10703;51.020;6.128;2022-09-09T17:46:19;17.70;99.90
21090;DHT22;10703;51.020;6.128;2022-09-09T17:48:55;17.50;99.90
21090;DHT22;10703;51.020;6.128;2022-09-09T17:51:25;17.50;99.90
21090;DHT22;10703;51.020;6.128;2022-09-09T17:53:55;17.40;99.90
21090;DHT22;10703;51.020;6.128;2022-09-09T17:56:26;17.30;99.90